Time,TemperatureF,DewpointF,PressureIn,WindDirection,WindDirectionDegrees,WindSpeedMPH,WindSpeedGustMPH,Humidity,HourlyPrecipIn,Conditions,Clouds,dailyrainin,SoftwareType,DateUTC
2013-03-13 00:00:00,52.5,13.7,25.78,SW,232,3.1,5.4,21,0.00,,---,0.00,VWS V13.01,2013-03-13 07:00:00,
2013-03-13 00:20:00,52.0,13.3,25.78,SW,226,2.7,4.9,21,0.00,,---,0.00,VWS V13.01,2013-03-13 07:20:00,
2013-03-13 00:40:00,51.6,13.0,25.78,SW,218,3.6,4.9,21,0.00,,---,0.00,VWS V13.01,2013-03-13 07:40:00,
2013-03-13 01:00:00,50.9,12.4,25.78,SW,218,4.0,4.9,21,0.00,,---,0.00,VWS V13.01,2013-03-13 08:00:00,
2013-03-13 01:20:00,50.2,14.8,25.78,SW,217,4.0,4.5,24,0.00,,---,0.00,VWS V13.01,2013-03-13 08:20:00,
2013-03-13 01:40:00,49.8,14.5,25.78,SW,222,5.4,5.4,24,0.00,,---,0.00,VWS V13.01,2013-03-13 08:40:00,
2013-03-13 02:00:00,49.5,14.2,25.78,SW,218,3.6,5.4,24,0.00,,---,0.00,VWS V13.01,2013-03-13 09:00:00,
2013-03-13 02:20:00,49.3,14.0,25.78,SW,218,4.9,5.4,24,0.00,,---,0.00,VWS V13.01,2013-03-13 09:20:00,
2013-03-13 02:40:00,48.9,13.7,25.78,SW,224,3.1,5.8,24,0.00,,---,0.00,VWS V13.01,2013-03-13 09:40:00,
2013-03-13 03:00:00,48.7,13.6,25.75,SW,224,3.6,3.6,24,0.00,,---,0.00,VWS V13.01,2013-03-13 10:00:00,
2013-03-13 03:20:00,48.4,15.1,25.75,SW,227,3.6,4.0,26,0.00,,---,0.00,VWS V13.01,2013-03-13 10:20:00,
2013-03-13 03:40:00,48.0,15.6,25.78,SSW,208,2.2,4.0,27,0.00,,---,0.00,VWS V13.01,2013-03-13 10:40:00,
2013-03-13 04:00:00,48.0,15.6,25.78,SSW,209,3.1,3.6,27,0.00,,---,0.00,VWS V13.01,2013-03-13 11:00:00,
2013-03-13 04:20:00,47.3,15.0,25.78,SSW,213,3.6,4.0,27,0.00,,---,0.00,VWS V13.01,2013-03-13 11:20:00,
2013-03-13 04:40:00,46.6,14.4,25.78,SW,215,3.1,4.0,27,0.00,,---,0.00,VWS V13.01,2013-03-13 11:40:00,
2013-03-13 05:00:00,46.8,14.6,25.75,SSW,212,4.0,4.9,27,0.00,,---,0.00,VWS V13.01,2013-03-13 12:00:00,
2013-03-13 05:20:00,48.6,13.4,25.78,SSW,209,4.0,5.4,24,0.00,,---,0.00,VWS V13.01,2013-03-13 12:20:00,
2013-03-13 05:40:00,48.7,13.6,25.78,SSW,210,2.2,5.4,24,0.00,,---,0.00,VWS V13.01,2013-03-13 12:40:00,
2013-03-13 06:00:00,48.7,13.6,25.78,NE,45,0.0,4.0,24,0.00,,---,0.00,VWS V13.01,2013-03-13 13:00:00,
2013-03-13 06:20:00,47.7,12.7,25.81,NW,324,0.0,0.0,24,0.00,,---,0.00,VWS V13.01,2013-03-13 13:20:00,
2013-03-13 06:40:00,46.6,11.7,25.81,NW,324,0.0,0.0,24,0.00,,---,0.00,VWS V13.01,2013-03-13 13:40:00,
2013-03-13 07:00:00,46.4,14.2,25.81,West,261,0.0,0.0,27,0.00,,---,0.00,VWS V13.01,2013-03-13 14:00:00,
2013-03-13 07:20:00,62.1,21.7,25.81,SW,220,0.0,0.0,21,0.00,,---,0.00,VWS V13.01,2013-03-13 14:20:00,
2013-03-13 07:40:00,57.6,15.6,25.81,WNW,286,3.1,3.1,19,0.00,,---,0.00,VWS V13.01,2013-03-13 14:40:00,
2013-03-13 08:00:00,56.8,16.2,25.81,SW,232,0.0,4.0,20,0.00,,---,0.00,VWS V13.01,2013-03-13 15:00:00,
2013-03-13 08:20:00,57.6,15.6,25.81,NW,306,2.7,3.6,19,0.00,,---,0.00,VWS V13.01,2013-03-13 15:20:00,
2013-03-13 08:40:00,58.8,16.7,25.81,NNE,24,3.6,6.3,19,0.00,,---,0.00,VWS V13.01,2013-03-13 15:40:00,
2013-03-13 09:00:00,60.6,18.2,25.81,ENE,61,3.6,4.9,19,0.00,,---,0.00,VWS V13.01,2013-03-13 16:00:00,
2013-03-13 09:20:00,62.8,18.7,25.81,ENE,68,3.1,6.3,18,0.00,,---,0.00,VWS V13.01,2013-03-13 16:20:00,
2013-03-13 09:40:00,64.0,19.7,25.81,North,357,4.0,6.3,18,0.00,,---,0.00,VWS V13.01,2013-03-13 16:40:00,
2013-03-13 10:00:00,65.1,20.6,25.84,ENE,65,3.1,8.7,18,0.00,,---,0.00,VWS V13.01,2013-03-13 17:00:00,
2013-03-13 10:20:00,66.6,20.4,25.84,SE,133,3.6,6.3,17,0.00,,---,0.00,VWS V13.01,2013-03-13 17:20:00,
2013-03-13 10:40:00,68.0,21.6,25.84,SE,146,7.6,7.6,17,0.00,,---,0.00,VWS V13.01,2013-03-13 17:40:00,
2013-03-13 11:00:00,69.3,22.6,25.81,SSE,154,4.0,7.6,17,0.00,,---,0.00,VWS V13.01,2013-03-13 18:00:00,
2013-03-13 11:20:00,71.2,24.2,25.84,SE,135,5.8,10.1,17,0.00,,---,0.00,VWS V13.01,2013-03-13 18:20:00,
2013-03-13 11:40:00,72.9,24.1,25.81,SE,129,0.0,9.6,16,0.00,,---,0.00,VWS V13.01,2013-03-13 18:40:00,
2013-03-13 12:00:00,74.3,25.2,25.81,ESE,123,4.0,8.7,16,0.00,,---,0.00,VWS V13.01,2013-03-13 19:00:00,
2013-03-13 12:20:00,75.4,24.6,25.81,South,169,4.9,11.0,15,0.00,,---,0.00,VWS V13.01,2013-03-13 19:20:00,
2013-03-13 12:40:00,78.3,26.9,25.78,NE,46,7.6,8.3,15,0.00,,---,0.00,VWS V13.01,2013-03-13 19:40:00,
2013-03-13 13:00:00,80.2,28.4,25.78,SW,226,2.2,7.6,15,0.00,,---,0.00,VWS V13.01,2013-03-13 20:00:00,
2013-03-13 13:20:00,80.8,27.2,25.78,NE,51,3.1,9.6,14,0.00,,---,0.00,VWS V13.01,2013-03-13 20:20:00,
2013-03-13 13:40:00,81.7,27.9,25.78,NNE,33,5.8,8.1,14,0.00,,---,0.00,VWS V13.01,2013-03-13 20:40:00,
2013-03-13 14:00:00,84.2,28.1,25.78,North,357,3.6,5.8,13,0.00,,---,0.00,VWS V13.01,2013-03-13 21:00:00,
2013-03-13 14:20:00,85.6,29.2,25.75,NNW,337,4.9,10.1,13,0.00,,---,0.00,VWS V13.01,2013-03-13 21:20:00,
2013-03-13 14:40:00,85.5,29.1,25.75,NE,48,3.1,10.1,13,0.00,,---,0.00,VWS V13.01,2013-03-13 21:40:00,
2013-03-13 15:00:00,85.8,29.4,25.75,NNE,19,2.7,9.2,13,0.00,,---,0.00,VWS V13.01,2013-03-13 22:00:00,
2013-03-13 15:20:00,86.9,30.2,25.75,WNW,300,0.0,6.3,13,0.00,,---,0.00,VWS V13.01,2013-03-13 22:20:00,
2013-03-13 15:40:00,85.1,28.8,25.75,ENE,58,8.3,8.7,13,0.00,,---,0.00,VWS V13.01,2013-03-13 22:40:00,
2013-03-13 16:00:00,86.2,29.6,25.75,WNW,303,5.8,8.3,13,0.00,,---,0.00,VWS V13.01,2013-03-13 23:00:00,
2013-03-13 16:20:00,86.2,29.6,25.75,NNE,21,2.7,8.7,13,0.00,,---,0.00,VWS V13.01,2013-03-13 23:20:00,
2013-03-13 16:40:00,85.3,28.9,25.72,NNE,17,4.0,6.3,13,0.00,,---,0.00,VWS V13.01,2013-03-13 23:40:00,
2013-03-13 17:00:00,85.1,28.8,25.72,WNW,295,0.0,4.9,13,0.00,,---,0.00,VWS V13.01,2013-03-14 00:00:00,
2013-03-13 17:20:00,82.4,28.5,25.72,NW,321,0.0,4.0,14,0.00,,---,0.00,VWS V13.01,2013-03-14 00:20:00,
2013-03-13 17:40:00,80.2,28.4,25.72,SE,146,0.0,4.9,15,0.00,,---,0.00,VWS V13.01,2013-03-14 00:40:00,
2013-03-13 18:00:00,78.3,26.9,25.72,SE,146,0.0,0.0,15,0.00,,---,0.00,VWS V13.01,2013-03-14 01:00:00,
2013-03-13 18:20:00,76.5,25.4,25.75,SE,146,0.0,0.0,15,0.00,,---,0.00,VWS V13.01,2013-03-14 01:20:00,
2013-03-13 18:40:00,74.5,25.4,25.75,NE,39,0.0,0.0,16,0.00,,---,0.00,VWS V13.01,2013-03-14 01:40:00,
2013-03-13 19:00:00,71.8,23.2,25.75,SSW,211,0.0,0.0,16,0.00,,---,0.00,VWS V13.01,2013-03-14 02:00:00,
2013-03-13 19:20:00,69.8,23.1,25.75,SW,228,3.1,3.1,17,0.00,,---,0.00,VWS V13.01,2013-03-14 02:20:00,
2013-03-13 19:40:00,67.6,21.3,25.75,SW,235,4.5,4.5,17,0.00,,---,0.00,VWS V13.01,2013-03-14 02:40:00,
2013-03-13 20:00:00,65.7,21.0,25.75,SW,235,4.5,4.5,18,0.00,,---,0.00,VWS V13.01,2013-03-14 03:00:00,
2013-03-13 20:20:00,64.2,19.9,25.75,SW,235,4.5,4.5,18,0.00,,---,0.00,VWS V13.01,2013-03-14 03:20:00,
2013-03-13 20:40:00,62.6,18.5,25.78,SW,235,4.5,4.5,18,0.00,,---,0.00,VWS V13.01,2013-03-14 03:40:00,
2013-03-13 21:00:00,61.9,19.2,25.78,SW,235,4.5,4.5,19,0.00,,---,0.00,VWS V13.01,2013-03-14 04:00:00,
2013-03-13 21:20:00,60.6,18.2,25.78,WSW,239,4.0,4.9,19,0.00,,---,0.00,VWS V13.01,2013-03-14 04:20:00,
2013-03-13 21:40:00,60.1,17.7,25.78,West,269,3.1,4.0,19,0.00,,---,0.00,VWS V13.01,2013-03-14 04:40:00,
2013-03-13 22:00:00,59.7,17.4,25.78,SW,227,4.9,4.9,19,0.00,,---,0.00,VWS V13.01,2013-03-14 05:00:00,
2013-03-13 22:20:00,58.8,16.7,25.78,SW,218,3.6,4.9,19,0.00,,---,0.00,VWS V13.01,2013-03-14 05:20:00,
2013-03-13 22:40:00,57.7,15.8,25.78,SW,231,4.0,5.8,19,0.00,,---,0.00,VWS V13.01,2013-03-14 05:40:00,
2013-03-13 23:00:00,57.0,16.4,25.78,SW,234,4.5,4.9,20,0.00,,---,0.00,VWS V13.01,2013-03-14 06:00:00,
2013-03-13 23:20:00,56.3,15.8,25.78,SW,227,3.1,4.5,20,0.00,,---,0.00,VWS V13.01,2013-03-14 06:20:00,
2013-03-13 23:40:00,55.8,15.3,25.78,SW,233,3.1,4.9,20,0.00,,---,0.00,VWS V13.01,2013-03-14 06:40:00,